Time;durP1;ratioP1;P1;durP2;ratioP2;P2;SDS_P1;SDS_P2;PMS_P1;PMS_P2;Temp;Humidity;BMP_temperature;BMP_pressure;BME280_temperature;BME280_humidity;BME280_pressure;Samples;Min_cycle;Max_cycle;Signal;HPM_P1;HPM_P2
2022/12/31 00:00:59;;;;;;;26.42;25.42;;;8.80;99.90;;;;;;5011597;28;20037;-76
2022/12/31 00:03:25;;;;;;;27.20;26.20;;;8.80;99.90;;;;;;5023074;28;20041;-76
2022/12/31 00:05:51;;;;;;;26.58;25.58;;;8.70;99.90;;;;;;5032619;28;20091;-77
2022/12/31 00:08:16;;;;;;;26.73;25.73;;;8.70;99.90;;;;;;5032836;28;20052;-76
2022/12/31 00:10:42;;;;;;;25.60;24.63;;;8.80;99.90;;;;;;5029496;28;20489;-75
2022/12/31 00:13:11;;;;;;;25.67;24.67;;;8.80;99.90;;;;;;5021508;28;20025;-77
2022/12/31 00:15:39;;;;;;;22.73;21.83;;;8.80;99.90;;;;;;5015184;28;20030;-75
2022/12/31 00:18:05;;;;;;;25.05;24.15;;;8.80;99.90;;;;;;5012543;28;20022;-75
2022/12/31 00:20:31;;;;;;;25.27;24.33;;;8.90;99.90;;;;;;5026081;28;20021;-75
2022/12/31 00:22:57;;;;;;;25.15;24.15;;;8.90;99.90;;;;;;5011230;28;20032;-75
2022/12/31 00:25:22;;;;;;;25.80;24.80;;;8.90;99.90;;;;;;5012552;28;20030;-74
2022/12/31 00:27:48;;;;;;;28.17;27.08;;;9.00;99.90;;;;;;5012227;28;20484;-75
2022/12/31 00:30:14;;;;;;;25.10;24.00;;;9.00;99.90;;;;;;5012417;28;20424;-74
2022/12/31 00:32:39;;;;;;;25.08;24.17;;;9.10;99.90;;;;;;5012340;28;20025;-74
2022/12/31 00:35:05;;;;;;;25.02;24.13;;;9.10;99.90;;;;;;5011174;28;20057;-75
2022/12/31 00:37:31;;;;;;;25.33;24.35;;;9.10;99.90;;;;;;5012116;28;20068;-75
2022/12/31 00:39:56;;;;;;;24.83;23.92;;;9.10;99.90;;;;;;5011001;28;20025;-75
2022/12/31 00:42:22;;;;;;;24.52;23.52;;;9.10;99.90;;;;;;5012252;28;20109;-75
2022/12/31 00:44:48;;;;;;;28.27;27.17;;;9.20;99.90;;;;;;5010840;28;20034;-75
2022/12/31 00:47:13;;;;;;;27.27;26.17;;;9.10;99.90;;;;;;5012068;28;20496;-75
2022/12/31 00:49:39;;;;;;;27.58;26.55;;;9.20;99.90;;;;;;5012073;28;20058;-74
2022/12/31 00:52:05;;;;;;;26.90;25.90;;;9.10;99.90;;;;;;5011967;28;20084;-76
2022/12/31 00:54:30;;;;;;;25.10;24.20;;;9.20;99.90;;;;;;5011993;28;20431;-75
2022/12/31 00:56:56;;;;;;;27.60;26.60;;;9.30;99.90;;;;;;5021543;28;20028;-76
2022/12/31 00:59:22;;;;;;;26.60;25.60;;;9.40;99.90;;;;;;5018672;28;20017;-76
2022/12/31 01:01:48;;;;;;;27.98;26.88;;;9.30;99.90;;;;;;5031752;28;20087;-76
2022/12/31 01:04:17;;;;;;;28.48;27.38;;;9.40;99.90;;;;;;5031621;28;20021;-77
2022/12/31 01:06:43;;;;;;;29.45;28.33;;;9.40;99.90;;;;;;5030859;28;20040;-75
2022/12/31 01:09:11;;;;;;;28.17;27.08;;;9.50;99.90;;;;;;5031470;28;20147;-76
2022/12/31 01:11:36;;;;;;;28.83;27.73;;;9.50;99.90;;;;;;5031663;28;20029;-76
2022/12/31 01:14:15;;;;;;;29.10;28.00;;;9.50;99.90;;;;;;5018505;28;20045;-75
2022/12/31 01:16:44;;;;;;;27.02;25.92;;;9.40;99.90;;;;;;5018344;28;20033;-75
2022/12/31 01:19:12;;;;;;;28.13;27.02;;;9.50;99.90;;;;;;5024021;28;20030;-74
2022/12/31 01:21:39;;;;;;;29.42;28.33;;;9.50;99.90;;;;;;5024934;28;20056;-74
2022/12/31 01:24:06;;;;;;;27.20;26.20;;;9.50;99.90;;;;;;5018943;28;20060;-74
2022/12/31 01:26:31;;;;;;;28.45;27.35;;;9.60;99.90;;;;;;5018111;28;20030;-74
2022/12/31 01:28:57;;;;;;;28.65;27.55;;;9.60;99.90;;;;;;5024212;28;20661;-76
2022/12/31 01:31:24;;;;;;;29.45;28.35;;;9.60;99.90;;;;;;5024912;28;20519;-75
2022/12/31 01:33:50;;;;;;;30.30;29.13;;;9.70;99.90;;;;;;5018772;28;20065;-75
2022/12/31 01:36:22;;;;;;;28.25;27.15;;;9.70;99.90;;;;;;5018070;28;20025;-76
2022/12/31 01:38:48;;;;;;;29.90;28.77;;;9.60;99.90;;;;;;5031045;28;20434;-78
2022/12/31 01:41:17;;;;;;;30.40;29.23;;;9.60;99.90;;;;;;5033611;28;20029;-77
2022/12/31 01:43:53;;;;;;;28.40;27.30;;;9.60;99.90;;;;;;5023407;28;20045;-77
2022/12/31 01:46:33;;;;;;;31.40;30.20;;;9.60;99.90;;;;;;5012728;28;20376;-77
2022/12/31 01:49:04;;;;;;;31.20;30.00;;;9.60;99.90;;;;;;5012402;28;20104;-77
2022/12/31 01:51:33;;;;;;;29.50;28.40;;;9.60;99.90;;;;;;5011533;28;20600;-75
2022/12/31 01:54:01;;;;;;;29.77;28.67;;;9.60;99.90;;;;;;5011416;28;20481;-76
2022/12/31 01:56:26;;;;;;;29.15;28.05;;;9.60;99.90;;;;;;5010042;28;20064;-76
2022/12/31 01:58:55;;;;;;;29.60;28.50;;;9.70;99.90;;;;;;5011779;28;20022;-76
2022/12/31 02:01:26;;;;;;;30.90;29.70;;;9.60;99.90;;;;;;5012387;28;20575;-77
2022/12/31 02:03:52;;;;;;;30.45;29.25;;;9.60;99.90;;;;;;5011664;28;20037;-77
2022/12/31 02:06:27;;;;;;;28.48;27.38;;;9.70;99.90;;;;;;5011988;28;20026;-77
2022/12/31 02:08:54;;;;;;;29.23;28.13;;;9.70;99.90;;;;;;5012351;28;20061;-77
2022/12/31 02:11:33;;;;;;;29.90;28.70;;;9.70;99.90;;;;;;5011981;28;20030;-77
2022/12/31 02:14:03;;;;;;;29.50;28.40;;;9.60;99.90;;;;;;5009982;28;20026;-77
2022/12/31 02:16:47;;;;;;;28.38;27.27;;;9.70;99.90;;;;;;5010249;28;20117;-75
2022/12/31 02:19:49;;;;;;;28.70;27.60;;;9.70;99.90;;;;;;5021588;28;20022;-77
2022/12/31 02:22:39;;;;;;;29.38;28.27;;;9.60;99.90;;;;;;5016206;28;20420;-76
2022/12/31 02:25:24;;;;;;;27.63;26.63;;;9.70;99.90;;;;;;5015976;28;20433;-76
2022/12/31 02:27:52;;;;;;;28.63;27.52;;;9.70;99.90;;;;;;5017562;28;20116;-76
2022/12/31 02:30:20;;;;;;;29.73;28.63;;;9.70;99.90;;;;;;5014588;28;20022;-76
2022/12/31 02:33:04;;;;;;;29.23;28.13;;;9.70;99.90;;;;;;5014567;28;20034;-76
2022/12/31 02:35:48;;;;;;;28.38;27.27;;;9.70;99.90;;;;;;5022299;28;20026;-76
2022/12/31 02:38:30;;;;;;;29.48;28.38;;;9.70;99.90;;;;;;5030911;28;20059;-76
2022/12/31 02:40:57;;;;;;;26.90;25.90;;;9.70;99.90;;;;;;5034224;28;20045;-76
2022/12/31 02:43:23;;;;;;;28.92;27.83;;;9.80;99.90;;;;;;5015129;28;20033;-75
2022/12/31 02:46:25;;;;;;;30.75;29.55;;;9.70;99.90;;;;;;5014518;28;20034;-77
2022/12/31 02:49:09;;;;;;;27.92;26.83;;;9.80;99.90;;;;;;5024929;28;20103;-76
2022/12/31 02:51:56;;;;;;;29.17;28.08;;;9.70;99.90;;;;;;5027549;28;20022;-77
2022/12/31 02:55:06;;;;;;;28.85;27.75;;;9.70;99.90;;;;;;5014766;28;20068;-75
2022/12/31 02:57:40;;;;;;;26.95;25.95;;;9.80;99.90;;;;;;5014052;28;20033;-77
2022/12/31 03:02:55;;;;;;;29.10;28.00;;;9.80;99.90;;;;;;5020936;28;20064;-76
2022/12/31 03:05:25;;;;;;;26.98;25.98;;;9.80;99.90;;;;;;5033939;28;20037;-78
2022/12/31 03:07:50;;;;;;;28.65;27.55;;;9.80;99.90;;;;;;5034491;28;20017;-77
2022/12/31 03:10:16;;;;;;;27.88;26.77;;;9.80;99.90;;;;;;5019046;28;20033;-75
2022/12/31 03:12:46;;;;;;;27.38;26.38;;;9.90;99.90;;;;;;5026960;28;20029;-75
2022/12/31 03:15:19;;;;;;;25.73;24.73;;;9.80;99.90;;;;;;5025826;28;20029;-75
2022/12/31 03:17:57;;;;;;;28.00;26.90;;;9.90;99.90;;;;;;5013566;28;20022;-74
2022/12/31 03:23:22;;;;;;;25.63;24.63;;;9.90;99.90;;;;;;5013596;28;20404;-75
2022/12/31 03:25:47;;;;;;;25.27;24.33;;;9.90;99.90;;;;;;5013666;28;20515;-75
2022/12/31 03:28:16;;;;;;;27.40;26.40;;;10.00;99.90;;;;;;5012712;28;20037;-75
2022/12/31 03:30:45;;;;;;;25.23;24.30;;;10.00;99.90;;;;;;5013405;28;20080;-75
2022/12/31 03:33:11;;;;;;;26.10;25.10;;;10.10;99.90;;;;;;5013330;28;20033;-75
2022/12/31 03:35:38;;;;;;;26.13;25.13;;;10.00;99.90;;;;;;5012263;28;20026;-76
2022/12/31 03:38:04;;;;;;;26.70;25.70;;;10.10;99.90;;;;;;5013193;28;20034;-76
2022/12/31 03:40:31;;;;;;;27.10;26.10;;;10.10;99.90;;;;;;5013352;28;20029;-75
2022/12/31 03:42:56;;;;;;;26.88;25.88;;;10.10;99.90;;;;;;5014066;28;20558;-75
2022/12/31 03:45:22;;;;;;;27.15;26.15;;;10.10;99.90;;;;;;5032221;28;20121;-75
2022/12/31 03:47:48;;;;;;;27.60;26.60;;;10.20;99.90;;;;;;5032764;28;20030;-76
2022/12/31 03:50:16;;;;;;;26.80;25.80;;;10.20;99.90;;;;;;5032982;28;20056;-77
2022/12/31 03:52:41;;;;;;;26.90;25.90;;;10.10;99.90;;;;;;5032848;28;20032;-77
2022/12/31 03:55:08;;;;;;;26.77;25.77;;;10.20;99.90;;;;;;5032914;28;20100;-75
2022/12/31 03:57:34;;;;;;;25.75;24.75;;;10.20;99.90;;;;;;5032571;28;20024;-77
2022/12/31 04:00:00;;;;;;;26.48;25.48;;;10.20;99.90;;;;;;5032932;28;20047;-77
2022/12/31 04:02:25;;;;;;;27.90;26.85;;;10.40;99.90;;;;;;5016923;28;20037;-75
2022/12/31 04:04:51;;;;;;;27.90;26.83;;;10.30;99.90;;;;;;5022496;28;20029;-77
2022/12/31 04:07:16;;;;;;;27.13;26.13;;;10.20;99.90;;;;;;5029389;28;20029;-77
2022/12/31 04:09:42;;;;;;;27.67;26.67;;;10.30;99.90;;;;;;5011747;28;20475;-77
2022/12/31 04:12:08;;;;;;;27.65;26.65;;;10.20;99.90;;;;;;5012967;28;20443;-77
2022/12/31 04:14:33;;;;;;;28.92;27.83;;;10.30;99.90;;;;;;5012778;28;20546;-77
2022/12/31 04:16:59;;;;;;;24.23;23.33;;;10.30;99.90;;;;;;5011300;28;20029;-76
2022/12/31 04:19:24;;;;;;;26.23;25.23;;;10.30;99.90;;;;;;5012710;28;20026;-77
2022/12/31 04:21:50;;;;;;;27.80;26.77;;;10.30;99.90;;;;;;5012606;28;20022;-77
2022/12/31 04:24:15;;;;;;;27.20;26.20;;;10.40;99.90;;;;;;5011728;28;20030;-76
2022/12/31 04:26:42;;;;;;;27.33;26.33;;;10.30;99.90;;;;;;5012856;28;20068;-77
2022/12/31 04:29:08;;;;;;;27.15;26.15;;;10.30;99.90;;;;;;5012438;28;20050;-77
2022/12/31 04:31:34;;;;;;;27.15;26.15;;;10.20;99.90;;;;;;5012928;28;20048;-77
2022/12/31 04:34:00;;;;;;;28.05;26.98;;;10.30;99.90;;;;;;5012349;28;20551;-77
2022/12/31 04:36:25;;;;;;;28.13;27.02;;;10.20;99.90;;;;;;5014306;28;20022;-75
2022/12/31 04:38:51;;;;;;;26.27;25.27;;;10.30;99.90;;;;;;5022225;28;20018;-75
2022/12/31 04:41:16;;;;;;;27.50;26.50;;;10.30;99.90;;;;;;5012216;28;20026;-75
2022/12/31 04:43:56;;;;;;;26.42;25.42;;;10.30;99.90;;;;;;5030541;28;20067;-76
2022/12/31 04:46:30;;;;;;;28.60;27.50;;;10.20;99.90;;;;;;5031933;28;20026;-76
2022/12/31 04:48:56;;;;;;;28.45;27.35;;;10.30;99.90;;;;;;5031817;28;20037;-76
2022/12/31 04:51:23;;;;;;;28.20;27.10;;;10.30;99.90;;;;;;5030739;28;20056;-76
2022/12/31 04:53:49;;;;;;;26.60;25.60;;;10.30;99.90;;;;;;5031804;28;20763;-74
2022/12/31 04:56:16;;;;;;;29.17;28.08;;;10.30;99.90;;;;;;5031833;28;20017;-75
2022/12/31 04:58:42;;;;;;;28.20;27.10;;;10.30;99.90;;;;;;5031604;28;20476;-75
2022/12/31 05:01:08;;;;;;;29.70;28.60;;;10.40;99.90;;;;;;5031779;28;20030;-75
2022/12/31 05:03:34;;;;;;;27.80;26.73;;;10.40;99.90;;;;;;5031611;28;20061;-74
2022/12/31 05:06:12;;;;;;;27.00;26.00;;;10.40;99.90;;;;;;5031735;28;20550;-74
2022/12/31 05:08:38;;;;;;;28.10;27.00;;;10.40;99.90;;;;;;5030230;28;20026;-74
2022/12/31 05:11:04;;;;;;;29.15;28.05;;;10.40;99.90;;;;;;5031632;28;20488;-76
2022/12/31 05:13:30;;;;;;;26.00;25.00;;;10.40;99.90;;;;;;5031554;28;20037;-76
2022/12/31 05:15:55;;;;;;;30.27;29.08;;;10.40;99.90;;;;;;5031619;28;20029;-75
2022/12/31 05:18:22;;;;;;;29.13;28.02;;;10.50;99.90;;;;;;5030166;28;20018;-75
2022/12/31 05:20:48;;;;;;;26.70;25.70;;;10.40;99.90;;;;;;5011761;28;20576;-75
2022/12/31 05:23:14;;;;;;;28.23;27.13;;;10.50;99.90;;;;;;5011686;28;20042;-75
2022/12/31 05:25:42;;;;;;;29.48;28.38;;;10.50;99.90;;;;;;5011617;28;20029;-75
2022/12/31 05:28:07;;;;;;;35.13;33.72;;;10.50;99.90;;;;;;5011495;28;20033;-75
2022/12/31 05:30:33;;;;;;;31.65;30.45;;;10.60;99.90;;;;;;5011714;28;20037;-76
2022/12/31 05:32:59;;;;;;;28.42;27.33;;;10.60;99.90;;;;;;5011556;28;20030;-76
2022/12/31 05:35:25;;;;;;;32.50;31.20;;;10.60;99.90;;;;;;5011614;28;20022;-75
2022/12/31 05:37:50;;;;;;;30.83;29.63;;;10.60;99.90;;;;;;5011848;28;20041;-77
2022/12/31 05:40:16;;;;;;;31.42;30.23;;;10.60;99.90;;;;;;5011685;28;20018;-77
2022/12/31 05:42:42;;;;;;;30.58;29.38;;;10.70;99.90;;;;;;5011737;28;20033;-77
2022/12/31 05:45:12;;;;;;;31.35;30.15;;;10.70;99.90;;;;;;5024084;28;20040;-76
2022/12/31 05:47:40;;;;;;;31.02;29.83;;;10.60;99.90;;;;;;5026348;28;20104;-77
2022/12/31 05:50:07;;;;;;;32.13;30.92;;;10.60;99.90;;;;;;5021976;28;20030;-76
2022/12/31 05:52:33;;;;;;;33.15;31.85;;;10.70;99.90;;;;;;5013304;28;20065;-77
2022/12/31 05:54:58;;;;;;;32.85;31.55;;;10.70;99.90;;;;;;5016124;28;20022;-77
2022/12/31 05:57:24;;;;;;;30.73;29.52;;;10.70;99.90;;;;;;5015464;28;20028;-77
2022/12/31 05:59:52;;;;;;;32.42;31.13;;;10.70;99.90;;;;;;5015567;28;20026;-77
2022/12/31 06:02:18;;;;;;;30.83;29.63;;;10.70;99.90;;;;;;5014183;28;20014;-76
2022/12/31 06:04:43;;;;;;;29.40;28.30;;;10.70;99.90;;;;;;5015121;28;20088;-75
2022/12/31 06:07:09;;;;;;;31.10;29.90;;;10.70;99.90;;;;;;5014909;28;20022;-76
2022/12/31 06:09:34;;;;;;;31.55;30.35;;;10.70;99.90;;;;;;5015159;28;20048;-75
2022/12/31 06:12:00;;;;;;;32.15;30.95;;;10.80;99.90;;;;;;5013753;28;20049;-75
2022/12/31 06:14:25;;;;;;;31.17;29.98;;;10.80;99.90;;;;;;5014918;28;20637;-76
2022/12/31 06:16:51;;;;;;;32.38;31.13;;;10.90;99.90;;;;;;5014719;28;20484;-75
2022/12/31 06:19:16;;;;;;;29.23;28.13;;;10.90;99.90;;;;;;5022306;28;20029;-76
2022/12/31 06:21:42;;;;;;;32.97;31.67;;;10.90;99.90;;;;;;5020395;28;20040;-74
2022/12/31 06:24:08;;;;;;;33.08;31.77;;;10.90;99.90;;;;;;5014824;28;20112;-74
2022/12/31 06:26:33;;;;;;;34.03;32.72;;;10.90;99.90;;;;;;5014557;28;20026;-75
2022/12/31 06:28:59;;;;;;;30.92;29.73;;;10.90;99.90;;;;;;5014503;28;20346;-75
2022/12/31 06:31:24;;;;;;;35.03;33.65;;;11.00;99.90;;;;;;5014685;28;20164;-75
2022/12/31 06:33:50;;;;;;;35.58;34.17;;;11.00;99.90;;;;;;5021252;28;20105;-75
2022/12/31 06:36:15;;;;;;;31.63;30.42;;;11.00;99.90;;;;;;5034288;28;20432;-76
2022/12/31 06:38:42;;;;;;;35.28;33.88;;;11.00;99.90;;;;;;5034244;28;20472;-76
2022/12/31 06:41:13;;;;;;;33.53;32.20;;;11.10;99.90;;;;;;5033088;28;20108;-76
2022/12/31 06:43:39;;;;;;;34.92;33.53;;;11.10;99.90;;;;;;5034271;28;20041;-76
2022/12/31 06:46:08;;;;;;;35.28;33.88;;;11.20;99.90;;;;;;5039135;28;20057;-77
2022/12/31 06:48:34;;;;;;;35.75;34.35;;;11.10;99.90;;;;;;5013201;28;20026;-76
2022/12/31 06:51:20;;;;;;;31.83;30.55;;;11.10;99.90;;;;;;5014596;28;20026;-76
2022/12/31 06:53:47;;;;;;;37.45;35.95;;;11.10;99.90;;;;;;5014520;28;20030;-77
2022/12/31 06:56:20;;;;;;;32.28;31.05;;;11.20;99.90;;;;;;5015329;28;20033;-76
2022/12/31 06:58:46;;;;;;;35.03;33.63;;;11.30;99.90;;;;;;5013299;28;20025;-77
2022/12/31 07:01:49;;;;;;;34.83;33.45;;;11.30;99.90;;;;;;5012860;28;20484;-77
2022/12/31 07:04:33;;;;;;;35.17;33.78;;;11.30;99.90;;;;;;5011462;28;20034;-76
2022/12/31 07:07:22;;;;;;;34.88;33.50;;;11.40;99.90;;;;;;5012588;28;20081;-77
2022/12/31 07:09:59;;;;;;;35.83;34.42;;;11.30;99.90;;;;;;5023355;28;20029;-76
2022/12/31 07:12:36;;;;;;;35.45;34.05;;;11.30;99.90;;;;;;5020763;28;20026;-78
2022/12/31 07:15:08;;;;;;;36.33;34.92;;;11.40;99.90;;;;;;5023647;28;20030;-77
2022/12/31 07:18:04;;;;;;;34.80;33.47;;;11.40;99.90;;;;;;5034945;28;20395;-76
2022/12/31 07:20:30;;;;;;;36.22;34.83;;;11.40;99.90;;;;;;5029287;28;20025;-76
2022/12/31 07:22:55;;;;;;;33.15;31.85;;;11.40;99.90;;;;;;5012426;28;20557;-76
2022/12/31 07:25:22;;;;;;;33.72;32.42;;;11.30;99.90;;;;;;5026844;28;20034;-76
2022/12/31 07:28:08;;;;;;;33.88;32.47;;;11.40;99.90;;;;;;5041625;28;20025;-76
2022/12/31 07:30:52;;;;;;;35.33;33.92;;;11.40;99.90;;;;;;5013580;28;20400;-76
2022/12/31 07:33:48;;;;;;;30.23;29.08;;;11.40;99.90;;;;;;5013394;28;20059;-76
2022/12/31 07:36:49;;;;;;;36.30;34.90;;;11.40;99.90;;;;;;5012173;28;20044;-77
2022/12/31 07:39:33;;;;;;;36.25;34.85;;;11.30;99.90;;;;;;5013515;28;20132;-76
2022/12/31 07:42:14;;;;;;;35.45;34.05;;;11.30;99.90;;;;;;5013693;28;20022;-77
2022/12/31 07:44:44;;;;;;;32.35;31.10;;;11.30;99.90;;;;;;5012935;28;20041;-76
2022/12/31 07:47:26;;;;;;;36.55;35.08;;;11.40;99.90;;;;;;5012944;28;20024;-76
2022/12/31 07:49:53;;;;;;;35.17;33.78;;;11.40;99.90;;;;;;5026630;28;20022;-76
2022/12/31 07:52:20;;;;;;;34.80;33.47;;;11.40;99.90;;;;;;5011924;28;20117;-76
2022/12/31 07:54:45;;;;;;;36.28;34.88;;;11.40;99.90;;;;;;5012920;28;20022;-76
2022/12/31 07:57:13;;;;;;;34.83;33.50;;;11.40;99.90;;;;;;5013047;28;20472;-76
2022/12/31 07:59:50;;;;;;;35.90;34.50;;;11.40;99.90;;;;;;5017835;28;20075;-76
2022/12/31 08:02:47;;;;;;;34.53;33.22;;;11.40;99.90;;;;;;5032719;28;20426;-76
2022/12/31 08:05:44;;;;;;;31.77;30.58;;;11.40;99.90;;;;;;5032679;28;20022;-76
2022/12/31 08:08:28;;;;;;;;;;;11.50;99.90;;;;;;5022355;28;20501;-76
2022/12/31 08:11:06;;;;;;;31.63;30.42;;;11.60;99.90;;;;;;5011576;28;19964;-76
2022/12/31 08:13:32;;;;;;;32.70;31.45;;;11.40;99.90;;;;;;5012713;28;20025;-77
2022/12/31 08:16:00;;;;;;;30.60;29.40;;;11.60;99.90;;;;;;5018713;28;20086;-76
2022/12/31 08:18:26;;;;;;;31.60;30.40;;;11.60;99.90;;;;;;5019124;28;20484;-78
2022/12/31 08:21:37;;;;;;;29.15;28.05;;;11.60;99.90;;;;;;5013083;28;20058;-76
2022/12/31 08:24:25;;;;;;;30.33;29.17;;;11.60;99.90;;;;;;5011758;28;20026;-77
2022/12/31 08:27:09;;;;;;;31.63;30.42;;;11.60;99.90;;;;;;5025307;28;20103;-78
2022/12/31 08:29:41;;;;;;;31.73;30.52;;;11.60;99.90;;;;;;5037808;28;20025;-77
2022/12/31 08:32:19;;;;;;;30.70;29.50;;;11.60;99.90;;;;;;5032495;28;20026;-77
2022/12/31 08:35:04;;;;;;;33.42;32.13;;;11.70;99.90;;;;;;5018159;28;20125;-76
2022/12/31 08:37:42;;;;;;;33.05;31.75;;;11.70;99.90;;;;;;5021929;28;20018;-76
2022/12/31 08:40:29;;;;;;;32.50;31.30;;;11.80;99.90;;;;;;5017016;28;20494;-76
2022/12/31 08:43:23;;;;;;;32.55;31.30;;;11.90;99.90;;;;;;5018733;28;20046;-75
2022/12/31 08:45:51;;;;;;;31.45;30.25;;;11.80;99.90;;;;;;5018614;28;20022;-76
2022/12/31 08:48:40;;;;;;;30.58;29.38;;;11.90;99.90;;;;;;5012337;28;20041;-76
2022/12/31 08:51:13;;;;;;;29.23;28.13;;;12.00;99.90;;;;;;5024745;28;20030;-76
2022/12/31 08:53:39;;;;;;;30.95;29.75;;;12.10;99.90;;;;;;5012378;28;20041;-76
2022/12/31 08:56:16;;;;;;;27.48;26.48;;;12.30;99.90;;;;;;5012504;28;20519;-76
2022/12/31 08:58:58;;;;;;;30.02;28.92;;;12.40;99.90;;;;;;5012296;28;20054;-76
2022/12/31 09:01:30;;;;;;;30.08;28.98;;;12.40;99.90;;;;;;5019420;28;20487;-76
2022/12/31 09:04:13;;;;;;;30.58;29.38;;;12.50;99.90;;;;;;5016790;28;20037;-76
2022/12/31 09:06:51;;;;;;;29.58;28.48;;;12.60;99.90;;;;;;5012102;28;20026;-77
2022/12/31 09:09:39;;;;;;;30.23;29.13;;;12.70;99.90;;;;;;5012528;28;20436;-77
2022/12/31 09:12:27;;;;;;;31.33;30.13;;;12.70;99.90;;;;;;5013641;28;20022;-76
2022/12/31 09:15:40;;;;;;;29.38;28.27;;;12.70;99.90;;;;;;5021008;28;20030;-76
2022/12/31 09:18:10;;;;;;;31.48;30.27;;;12.90;99.90;;;;;;5012085;28;20049;-76
2022/12/31 09:20:36;;;;;;;30.65;29.45;;;12.80;99.90;;;;;;5025318;28;20365;-76
2022/12/31 09:23:02;;;;;;;32.10;30.90;;;12.80;99.90;;;;;;5012032;28;20032;-77
2022/12/31 09:25:28;;;;;;;29.85;28.75;;;12.90;99.90;;;;;;5024029;28;20026;-76
2022/12/31 09:28:08;;;;;;;30.88;29.67;;;13.10;99.90;;;;;;5024815;28;20029;-76
2022/12/31 09:30:39;;;;;;;27.98;26.95;;;13.20;99.90;;;;;;5023106;28;20032;-77
2022/12/31 09:33:15;;;;;;;25.63;24.65;;;13.40;99.90;;;;;;5020777;28;20439;-77
2022/12/31 09:35:56;;;;;;;26.55;25.55;;;13.60;99.90;;;;;;5026539;28;20057;-77
2022/12/31 09:38:31;;;;;;;25.50;24.58;;;13.60;99.90;;;;;;5015389;28;20101;-77
2022/12/31 09:41:05;;;;;;;22.75;21.92;;;13.80;99.90;;;;;;5015787;28;20025;-77
2022/12/31 09:44:02;;;;;;;24.83;23.92;;;13.90;99.90;;;;;;5022045;28;20505;-78
2022/12/31 09:46:40;;;;;;;26.85;25.85;;;13.90;99.90;;;;;;5035281;28;20124;-77
2022/12/31 09:49:48;;;;;;;24.70;23.80;;;13.90;99.90;;;;;;5035129;28;20052;-78
2022/12/31 09:52:31;;;;;;;24.65;23.75;;;13.90;99.90;;;;;;5035243;28;20029;-77
2022/12/31 09:55:25;;;;;;;23.88;22.98;;;13.80;99.90;;;;;;5035314;28;20029;-76
2022/12/31 09:57:59;;;;;;;24.25;23.35;;;14.00;99.90;;;;;;5033307;28;20059;-77
2022/12/31 10:00:34;;;;;;;22.10;21.30;;;13.90;99.90;;;;;;5039952;28;20022;-79
2022/12/31 10:03:30;;;;;;;18.67;17.98;;;14.10;99.90;;;;;;5033557;28;20364;-76
2022/12/31 10:06:05;;;;;;;20.33;19.63;;;14.20;99.90;;;;;;5033561;28;20029;-77
2022/12/31 10:08:40;;;;;;;20.92;20.13;;;14.20;99.90;;;;;;5034346;28;20096;-78
2022/12/31 10:11:18;;;;;;;17.15;16.55;;;14.30;99.90;;;;;;5028123;28;20030;-77
2022/12/31 10:14:13;;;;;;;13.30;12.80;;;14.30;99.90;;;;;;5014764;28;20034;-76
2022/12/31 10:17:14;;;;;;;14.68;14.18;;;14.30;99.90;;;;;;5015056;28;20024;-77
2022/12/31 10:19:55;;;;;;;20.67;19.88;;;14.40;99.90;;;;;;5014962;28;20105;-76
2022/12/31 10:22:45;;;;;;;15.30;14.73;;;14.60;99.90;;;;;;5028207;28;20485;-76
2022/12/31 10:25:39;;;;;;;10.70;10.30;;;14.60;99.90;;;;;;5028358;28;20025;-77
2022/12/31 10:28:32;;;;;;;11.45;10.75;;;14.60;99.90;;;;;;5014837;28;20105;-77
2022/12/31 10:31:36;;;;;;;8.85;8.55;;;14.70;99.90;;;;;;5024957;28;20026;-77
2022/12/31 10:34:23;;;;;;;9.85;9.50;;;14.80;99.90;;;;;;5034690;28;20064;-77
2022/12/31 10:36:53;;;;;;;;;;;14.70;99.90;;;;;;5030783;28;20472;-77
2022/12/31 10:40:01;;;;;;;5.18;4.97;;;14.90;99.90;;;;;;5025208;28;19905;-76
2022/12/31 10:42:50;;;;;;;5.20;5.00;;;14.80;99.90;;;;;;5014390;28;20435;-77
2022/12/31 10:45:32;;;;;;;5.50;5.30;;;14.90;99.90;;;;;;5022412;28;20026;-77
2022/12/31 10:48:49;;;;;;;5.72;5.53;;;14.90;99.90;;;;;;5017773;28;20388;-77
2022/12/31 10:51:17;;;;;;;4.63;4.53;;;14.80;99.90;;;;;;5002615;28;20034;-77
2022/12/31 10:54:01;;;;;;;5.38;5.18;;;14.80;99.90;;;;;;5013070;28;20112;-77
2022/12/31 10:56:54;;;;;;;5.93;5.72;;;14.70;99.90;;;;;;5014399;28;20029;-77
2022/12/31 10:59:33;;;;;;;7.38;6.97;;;14.80;99.90;;;;;;5027671;28;20038;-77
2022/12/31 11:02:26;;;;;;;3.30;3.20;;;14.80;99.90;;;;;;5025810;28;20022;-77
2022/12/31 11:05:31;;;;;;;3.75;3.65;;;14.70;99.90;;;;;;5034074;28;20025;-76
2022/12/31 11:08:18;;;;;;;5.72;5.53;;;14.60;99.90;;;;;;5014078;28;20484;-74
2022/12/31 11:11:11;;;;;;;3.00;2.90;;;14.70;99.90;;;;;;5013829;28;20029;-74
2022/12/31 11:13:48;;;;;;;3.10;3.00;;;14.60;99.90;;;;;;5013748;28;20033;-74
2022/12/31 11:16:37;;;;;;;2.70;2.60;;;14.90;99.90;;;;;;5013856;28;20029;-77
2022/12/31 11:19:18;;;;;;;3.20;3.10;;;14.50;99.90;;;;;;5019263;28;20022;-76
2022/12/31 11:22:05;;;;;;;3.50;3.40;;;14.50;99.90;;;;;;5019174;28;20149;-76
2022/12/31 11:25:04;;;;;;;3.00;2.90;;;14.50;99.90;;;;;;5012306;28;20158;-76
2022/12/31 11:27:54;;;;;;;3.08;2.97;;;14.50;99.90;;;;;;5021716;28;20075;-76
2022/12/31 11:30:53;;;;;;;2.40;2.30;;;14.50;99.90;;;;;;5033342;28;20415;-76
2022/12/31 11:33:18;;;;;;;2.47;2.38;;;14.60;99.90;;;;;;5029283;28;20039;-76
2022/12/31 11:35:59;;;;;;;2.17;2.13;;;14.70;99.90;;;;;;5033081;28;20025;-76
2022/12/31 11:38:27;;;;;;;1.90;1.90;;;14.70;99.90;;;;;;5033431;28;20537;-75
2022/12/31 11:41:06;;;;;;;1.80;1.80;;;14.80;99.90;;;;;;5034054;28;20072;-75
2022/12/31 11:44:09;;;;;;;1.10;1.10;;;14.90;99.90;;;;;;5034813;28;20034;-76
2022/12/31 11:47:16;;;;;;;1.75;1.75;;;15.00;99.90;;;;;;5012326;28;20452;-76
2022/12/31 11:49:58;;;;;;;2.00;1.90;;;15.10;99.90;;;;;;4991645;28;20038;-76
2022/12/31 11:52:37;;;;;;;1.60;1.60;;;15.00;99.90;;;;;;5012265;28;20040;-76
2022/12/31 11:55:22;;;;;;;1.40;1.40;;;15.20;99.90;;;;;;5020431;28;20029;-76
2022/12/31 11:57:51;;;;;;;1.30;1.30;;;15.20;99.90;;;;;;5030291;28;20028;-76
2022/12/31 12:00:23;;;;;;;1.55;1.55;;;15.10;99.90;;;;;;5031921;28;20021;-76
2022/12/31 12:03:06;;;;;;;1.42;1.42;;;15.10;99.90;;;;;;5031822;28;20143;-75
2022/12/31 12:05:33;;;;;;;1.90;1.90;;;15.30;99.90;;;;;;5031913;28;20025;-76
2022/12/31 12:08:00;;;;;;;1.50;1.50;;;15.40;99.90;;;;;;5027957;28;20025;-76
2022/12/31 12:10:34;;;;;;;1.40;1.40;;;15.20;99.90;;;;;;5024110;28;20376;-76
2022/12/31 12:13:00;;;;;;;1.00;1.00;;;15.20;99.90;;;;;;5027169;28;20021;-76
2022/12/31 12:15:30;;;;;;;5.88;2.08;;;15.20;99.90;;;;;;5027938;28;20029;-76
2022/12/31 12:17:58;;;;;;;0.70;0.70;;;15.50;99.90;;;;;;5026209;28;20029;-76
2022/12/31 12:20:32;;;;;;;0.80;0.80;;;15.60;99.90;;;;;;5028072;28;20485;-76
2022/12/31 12:23:00;;;;;;;0.80;0.80;;;15.50;99.90;;;;;;5011927;28;20492;-75
2022/12/31 12:25:39;;;;;;;0.80;0.80;;;15.50;99.90;;;;;;5016158;28;20436;-76
2022/12/31 12:28:23;;;;;;;0.60;0.60;;;15.40;99.90;;;;;;5016594;28;20032;-76
2022/12/31 12:31:17;;;;;;;0.82;0.82;;;15.40;99.90;;;;;;5017735;28;20089;-76
2022/12/31 12:33:45;;;;;;;0.60;0.60;;;15.40;99.90;;;;;;5023822;28;20061;-76
2022/12/31 12:36:14;;;;;;;0.85;0.82;;;15.50;99.90;;;;;;5025974;28;20029;-76
2022/12/31 12:38:40;;;;;;;0.50;0.50;;;15.40;99.90;;;;;;5023539;28;20028;-76
2022/12/31 12:41:11;;;;;;;0.60;0.60;;;15.30;99.90;;;;;;5017407;28;20646;-76
2022/12/31 12:43:37;;;;;;;0.50;0.50;;;15.20;99.90;;;;;;4984683;28;1078360;-76
2022/12/31 12:46:04;;;;;;;0.68;0.68;;;15.30;99.90;;;;;;5027915;28;20040;-76
2022/12/31 12:48:35;;;;;;;0.50;0.50;;;15.30;99.90;;;;;;5024644;28;20014;-75
2022/12/31 12:51:29;;;;;;;0.60;0.60;;;15.30;99.90;;;;;;5026729;28;20044;-76
2022/12/31 12:54:35;;;;;;;0.43;0.43;;;15.40;99.90;;;;;;4999846;28;20129;-80
2022/12/31 12:57:19;;;;;;;0.60;0.60;;;15.40;99.90;;;;;;5038609;28;20025;-76
2022/12/31 12:59:48;;;;;;;0.50;0.50;;;15.30;99.90;;;;;;5020355;28;20056;-73
2022/12/31 13:02:19;;;;;;;0.50;0.50;;;15.40;99.90;;;;;;5023687;28;20029;-76
2022/12/31 13:05:07;;;;;;;0.50;0.50;;;15.40;99.90;;;;;;5028143;28;20492;-76
2022/12/31 13:07:57;;;;;;;0.50;0.50;;;15.20;99.90;;;;;;5021082;28;20022;-78
2022/12/31 13:11:10;;;;;;;66.32;5.18;;;15.10;99.90;;;;;;5027420;28;20480;-75
2022/12/31 13:13:43;;;;;;;0.50;0.50;;;15.40;99.90;;;;;;5001318;28;20542;-75
2022/12/31 13:16:36;;;;;;;0.60;0.60;;;15.40;99.90;;;;;;5018147;28;20430;-76